createdAt,value
2022-09-22T00:01:19.801Z,16.20
2022-09-22T00:03:52.766Z,18.67
2022-09-22T00:06:22.449Z,16.02
2022-09-22T00:11:22.109Z,15.85
2022-09-22T00:13:56.123Z,16.10
2022-09-22T00:16:27.449Z,15.38
2022-09-22T00:18:54.614Z,16.88
2022-09-22T00:21:23.284Z,16.40
2022-09-22T00:23:50.496Z,16.90
2022-09-22T00:26:21.803Z,15.88
2022-09-22T00:28:51.578Z,17.35
2022-09-22T00:33:48.767Z,16.42
2022-09-22T00:36:17.136Z,16.40
2022-09-22T00:38:44.468Z,16.42
2022-09-22T00:41:40.923Z,15.27
2022-09-22T00:44:36.049Z,16.55
2022-09-22T00:47:25.161Z,15.63
2022-09-22T00:50:05.470Z,13.90
2022-09-22T00:52:47.308Z,14.02
2022-09-22T00:55:21.200Z,13.98
2022-09-22T00:57:49.397Z,14.52
2022-09-22T01:00:16.773Z,13.85
2022-09-22T01:02:48.904Z,14.18
2022-09-22T01:05:16.379Z,13.85
2022-09-22T01:07:44.136Z,13.68
2022-09-22T01:10:11.467Z,14.20
2022-09-22T01:12:44.788Z,15.25
2022-09-22T01:15:18.022Z,15.02
2022-09-22T01:17:47.787Z,14.52
2022-09-22T01:25:44.739Z,15.38
2022-09-22T01:28:26.080Z,16.15
2022-09-22T01:31:21.855Z,16.77
2022-09-22T01:34:16.264Z,15.80
2022-09-22T01:37:01.142Z,13.43
2022-09-22T01:39:40.818Z,14.75
2022-09-22T01:44:53.348Z,15.88
2022-09-22T01:47:35.138Z,14.88
2022-09-22T01:50:08.487Z,14.15
2022-09-22T01:52:39.572Z,16.17
2022-09-22T01:55:30.223Z,15.05
2022-09-22T01:58:15.224Z,15.15
2022-09-22T02:00:45.988Z,15.45
2022-09-22T02:03:21.658Z,14.15
2022-09-22T02:05:56.697Z,15.90
2022-09-22T02:08:58.946Z,19.58
2022-09-22T02:11:26.009Z,16.08
2022-09-22T02:13:53.205Z,14.35
2022-09-22T02:16:22.830Z,14.43
2022-09-22T02:19:12.588Z,14.65
2022-09-22T02:21:42.051Z,14.57
2022-09-22T02:24:27.200Z,16.13
2022-09-22T02:26:54.828Z,14.70
2022-09-22T02:29:22.917Z,15.05
2022-09-22T02:31:51.891Z,15.80
2022-09-22T02:34:18.943Z,15.65
2022-09-22T02:37:02.349Z,15.43
2022-09-22T02:39:41.039Z,14.52
2022-09-22T02:42:39.963Z,15.30
2022-09-22T02:45:13.960Z,15.77
2022-09-22T02:47:49.213Z,19.10
2022-09-22T02:50:20.721Z,15.25
2022-09-22T02:52:57.725Z,16.98
2022-09-22T02:55:24.597Z,15.05
2022-09-22T02:57:51.478Z,16.35
2022-09-22T03:00:18.569Z,15.88
2022-09-22T03:02:45.317Z,15.98
2022-09-22T03:05:12.374Z,16.77
2022-09-22T03:07:39.537Z,16.40
2022-09-22T03:10:07.077Z,17.45
2022-09-22T03:12:33.798Z,17.27
2022-09-22T03:15:00.618Z,17.27
2022-09-22T03:17:27.445Z,17.70
2022-09-22T03:19:54.161Z,17.25
2022-09-22T03:22:20.988Z,18.20
2022-09-22T03:24:47.753Z,16.98
2022-09-22T03:27:14.939Z,18.55
2022-09-22T03:29:41.755Z,18.33
2022-09-22T03:32:08.521Z,18.27
2022-09-22T03:34:35.533Z,18.15
2022-09-22T03:37:02.410Z,18.48
2022-09-22T03:39:29.201Z,17.55
2022-09-22T03:41:56.316Z,17.30
2022-09-22T03:44:23.185Z,16.95
2022-09-22T03:46:49.878Z,16.88
2022-09-22T03:49:16.605Z,17.08
2022-09-22T03:51:43.486Z,18.15
2022-09-22T03:54:10.262Z,18.88
2022-09-22T03:56:37.084Z,17.90
2022-09-22T03:59:04.044Z,17.27
2022-09-22T04:01:30.795Z,17.45
2022-09-22T04:03:57.536Z,18.35
2022-09-22T04:06:24.475Z,16.88
2022-09-22T04:08:51.749Z,17.67
2022-09-22T04:11:18.492Z,18.52
2022-09-22T04:13:46.564Z,17.80
2022-09-22T04:16:13.837Z,17.20
2022-09-22T04:18:40.750Z,17.73
2022-09-22T04:21:08.202Z,17.80
2022-09-22T04:23:35.235Z,17.67
2022-09-22T04:26:03.079Z,19.52
2022-09-22T04:28:30.576Z,19.70
2022-09-22T04:30:58.090Z,18.55
2022-09-22T04:33:25.777Z,17.90
2022-09-22T04:35:53.240Z,16.92
2022-09-22T04:38:20.527Z,16.35
2022-09-22T04:40:49.717Z,15.27
2022-09-22T04:43:16.539Z,16.73
2022-09-22T04:45:46.057Z,16.05
2022-09-22T04:48:12.797Z,14.38
2022-09-22T04:50:41.545Z,16.67
2022-09-22T04:53:12.749Z,15.75
2022-09-22T04:55:39.765Z,16.40
2022-09-22T04:58:07.918Z,16.70
2022-09-22T05:00:34.621Z,16.63
2022-09-22T05:03:03.577Z,16.58
2022-09-22T05:05:30.313Z,16.38
2022-09-22T05:07:57.028Z,17.00
2022-09-22T05:10:25.524Z,17.48
2022-09-22T05:12:53.820Z,16.80
2022-09-22T05:15:22.153Z,18.38
2022-09-22T05:17:54.297Z,17.63
2022-09-22T05:20:21.638Z,21.65
2022-09-22T05:22:48.710Z,20.05
2022-09-22T05:25:19.847Z,20.48
2022-09-22T05:27:56.840Z,19.48
2022-09-22T05:30:25.896Z,22.20
2022-09-22T05:32:53.597Z,20.98
2022-09-22T05:35:22.464Z,21.77
2022-09-22T05:37:52.626Z,26.37
2022-09-22T05:40:20.395Z,22.83
2022-09-22T05:42:49.452Z,21.50
2022-09-22T05:45:17.201Z,22.73
2022-09-22T05:47:45.524Z,22.05
2022-09-22T05:50:14.428Z,23.08
2022-09-22T05:52:41.371Z,24.17
2022-09-22T05:55:09.193Z,23.38
2022-09-22T05:57:36.180Z,20.27
2022-09-22T06:00:05.482Z,20.05
2022-09-22T06:02:32.310Z,20.02
2022-09-22T06:04:59.051Z,20.92
2022-09-22T06:07:25.990Z,21.58
2022-09-22T06:09:52.793Z,22.17
2022-09-22T06:12:19.948Z,21.42
2022-09-22T06:14:46.797Z,25.10
2022-09-22T06:17:13.906Z,20.05
2022-09-22T06:19:41.372Z,21.55
2022-09-22T06:22:11.206Z,21.70
2022-09-22T06:27:04.960Z,23.27
2022-09-22T06:29:31.975Z,23.73
2022-09-22T06:31:58.813Z,22.58
2022-09-22T06:34:27.297Z,24.10
2022-09-22T06:36:57.471Z,19.75
2022-09-22T06:39:24.193Z,21.23
2022-09-22T06:41:51.001Z,19.40
2022-09-22T06:44:17.972Z,20.02
2022-09-22T06:46:45.860Z,21.08
2022-09-22T06:49:13.810Z,21.10
2022-09-22T06:51:40.961Z,20.52
2022-09-22T06:54:07.914Z,21.55
2022-09-22T06:56:38.139Z,22.90
2022-09-22T06:59:12.417Z,19.90
2022-09-22T07:01:41.367Z,19.48
2022-09-22T07:04:08.645Z,20.92
2022-09-22T07:06:37.554Z,19.35
2022-09-22T07:09:05.498Z,20.93
2022-09-22T07:11:34.286Z,22.30
2022-09-22T07:14:04.485Z,19.75
2022-09-22T07:16:31.254Z,21.73
2022-09-22T07:19:01.523Z,22.80
2022-09-22T07:21:33.245Z,20.05
2022-09-22T07:24:00.482Z,21.65
2022-09-22T07:26:30.958Z,20.75
2022-09-22T07:28:59.893Z,21.75
2022-09-22T07:31:32.119Z,22.17
2022-09-22T07:34:01.842Z,21.00
2022-09-22T07:36:30.931Z,19.98
2022-09-22T07:39:03.304Z,22.25
2022-09-22T07:41:32.082Z,21.55
2022-09-22T07:44:23.234Z,20.35
2022-09-22T07:46:51.336Z,20.88
2022-09-22T07:49:19.731Z,20.10
2022-09-22T07:51:46.792Z,19.20
2022-09-22T07:54:13.720Z,21.42
2022-09-22T07:56:42.987Z,22.20
2022-09-22T07:59:12.465Z,19.42
2022-09-22T08:01:44.817Z,18.48
2022-09-22T08:04:16.748Z,18.83
2022-09-22T08:06:44.926Z,18.25
2022-09-22T08:09:12.682Z,19.85
2022-09-22T08:11:40.901Z,21.75
2022-09-22T08:14:11.841Z,21.20
2022-09-22T08:16:40.789Z,18.98
2022-09-22T08:19:12.742Z,18.50
2022-09-22T08:21:48.992Z,19.35
2022-09-22T08:24:23.520Z,18.08
2022-09-22T08:26:53.018Z,21.58
2022-09-22T08:29:20.466Z,17.42
2022-09-22T08:31:48.114Z,17.30
2022-09-22T08:34:16.968Z,18.60
2022-09-22T08:36:48.896Z,16.88
2022-09-22T08:39:17.640Z,18.90
2022-09-22T08:42:13.992Z,18.63
2022-09-22T08:45:00.040Z,17.42
2022-09-22T08:48:05.877Z,16.85
2022-09-22T08:51:14.630Z,17.63
2022-09-22T08:53:49.423Z,16.80
2022-09-22T08:56:29.443Z,17.08
2022-09-22T08:59:02.275Z,17.10
2022-09-22T09:01:35.592Z,16.55
2022-09-22T09:04:18.734Z,16.58
2022-09-22T09:07:04.143Z,16.25
2022-09-22T09:10:01.497Z,18.20
2022-09-22T09:12:53.811Z,18.67
2022-09-22T09:15:28.894Z,17.05
2022-09-22T09:18:02.596Z,18.27
2022-09-22T09:20:41.577Z,16.58
2022-09-22T09:25:50.369Z,18.00
2022-09-22T09:28:37.663Z,18.23
2022-09-22T09:31:29.251Z,18.83
2022-09-22T09:34:03.702Z,20.27
2022-09-22T09:36:34.132Z,18.73
2022-09-22T09:39:23.778Z,18.73
2022-09-22T09:41:51.127Z,20.15
2022-09-22T09:44:26.869Z,19.27
2022-09-22T09:47:30.463Z,19.55
2022-09-22T09:49:59.854Z,22.92
2022-09-22T09:52:28.301Z,19.30
2022-09-22T09:54:55.333Z,18.88
2022-09-22T09:57:27.622Z,20.48
2022-09-22T10:00:32.473Z,18.05
2022-09-22T10:03:24.651Z,18.50
2022-09-22T10:06:04.770Z,19.55
2022-09-22T10:08:36.779Z,18.05
2022-09-22T10:11:04.445Z,16.30
2022-09-22T10:13:33.976Z,20.65
2022-09-22T10:16:05.378Z,18.27
2022-09-22T10:18:39.453Z,17.95
2022-09-22T10:21:23.720Z,18.52
2022-09-22T10:23:52.520Z,17.02
2022-09-22T10:29:13.599Z,17.67
2022-09-22T10:31:41.977Z,16.95
2022-09-22T10:34:48.063Z,20.10
2022-09-22T10:37:18.973Z,19.10
2022-09-22T10:39:49.448Z,18.55
2022-09-22T10:42:27.933Z,17.30
2022-09-22T10:45:00.217Z,18.17
2022-09-22T10:48:06.138Z,18.75
2022-09-22T10:50:41.837Z,17.55
2022-09-22T10:53:27.709Z,18.08
2022-09-22T10:56:13.523Z,17.52
2022-09-22T10:59:35.786Z,17.75
2022-09-22T11:02:48.079Z,19.08
2022-09-22T11:05:50.761Z,17.60
2022-09-22T11:08:39.204Z,18.42
2022-09-22T11:14:11.530Z,18.67
2022-09-22T11:16:57.072Z,18.90
2022-09-22T11:19:24.593Z,19.23
2022-09-22T11:22:01.537Z,20.80
2022-09-22T11:24:39.381Z,15.15
2022-09-22T11:27:16.986Z,25.50
2022-09-22T11:29:57.354Z,16.83
2022-09-22T11:32:47.824Z,15.13
2022-09-22T11:35:26.202Z,16.98
2022-09-22T11:38:14.234Z,22.88
2022-09-22T11:41:04.221Z,16.13
2022-09-22T11:43:59.172Z,15.85
2022-09-22T11:47:00.855Z,15.35
2022-09-22T11:49:41.317Z,16.25
2022-09-22T11:52:29.127Z,18.38
2022-09-22T11:55:29.956Z,15.95
2022-09-22T11:58:05.158Z,15.95
2022-09-22T12:00:47.114Z,15.30
2022-09-22T12:03:20.400Z,16.23
2022-09-22T12:05:57.159Z,15.98
2022-09-22T12:08:29.266Z,15.15
2022-09-22T12:10:57.525Z,14.30
2022-09-22T12:13:28.263Z,14.30
2022-09-22T12:16:18.909Z,14.23
2022-09-22T12:18:52.875Z,13.95
2022-09-22T12:21:40.841Z,14.43
2022-09-22T12:24:12.335Z,14.65
2022-09-22T12:26:45.150Z,15.82
2022-09-22T12:29:14.949Z,14.10
2022-09-22T12:31:44.808Z,14.73
2022-09-22T12:34:32.158Z,14.82
2022-09-22T12:37:09.777Z,14.48
2022-09-22T12:39:42.749Z,14.35
2022-09-22T12:42:30.570Z,15.00
2022-09-22T12:45:14.997Z,13.50
2022-09-22T12:47:43.136Z,14.25
2022-09-22T12:50:27.832Z,14.25
2022-09-22T12:52:54.555Z,13.45
2022-09-22T12:55:39.426Z,14.00
2022-09-22T12:58:21.634Z,14.13
2022-09-22T13:00:56.555Z,13.80
2022-09-22T13:03:26.552Z,14.68
2022-09-22T13:06:05.286Z,13.70
2022-09-22T13:08:32.091Z,14.07
2022-09-22T13:11:05.692Z,13.05
2022-09-22T13:13:32.560Z,14.85
2022-09-22T13:16:00.516Z,15.00
2022-09-22T13:18:36.141Z,14.90
2022-09-22T13:21:15.051Z,14.98
2022-09-22T13:24:00.427Z,17.20
2022-09-22T13:26:43.048Z,16.27
2022-09-22T13:29:16.003Z,17.70
2022-09-22T13:31:46.812Z,16.88
2022-09-22T13:34:28.001Z,17.48
2022-09-22T13:36:57.029Z,17.00
2022-09-22T13:39:26.487Z,15.65
2022-09-22T13:41:59.570Z,15.73
2022-09-22T13:44:31.112Z,15.40
2022-09-22T13:47:01.226Z,16.27
2022-09-22T13:49:37.729Z,17.35
2022-09-22T13:52:08.956Z,17.77
2022-09-22T13:54:37.711Z,16.15
2022-09-22T13:57:15.152Z,17.02
2022-09-22T13:59:42.837Z,16.08
2022-09-22T14:02:12.887Z,15.25
2022-09-22T14:04:50.962Z,15.68
2022-09-22T14:07:19.741Z,16.50
2022-09-22T14:09:46.943Z,17.10
2022-09-22T14:12:16.179Z,16.92
2022-09-22T14:14:43.308Z,15.10
2022-09-22T14:17:40.565Z,17.75
2022-09-22T14:20:09.890Z,14.70
2022-09-22T14:22:42.424Z,16.40
2022-09-22T14:25:22.315Z,15.05
2022-09-22T14:27:55.717Z,14.52
2022-09-22T14:30:31.246Z,17.10
2022-09-22T14:33:03.524Z,14.32
2022-09-22T14:35:37.421Z,14.23
2022-09-22T14:38:14.417Z,17.70
2022-09-22T14:40:55.256Z,14.48
2022-09-22T14:43:25.555Z,14.50
2022-09-22T14:46:33.998Z,15.20
2022-09-22T14:49:32.779Z,14.90
2022-09-22T14:52:00.774Z,15.18
2022-09-22T14:54:32.238Z,15.45
2022-09-22T14:57:00.920Z,14.68
2022-09-22T14:59:46.507Z,14.20
2022-09-22T15:02:33.813Z,17.58
2022-09-22T15:05:03.492Z,15.10
2022-09-22T15:07:36.328Z,16.27
2022-09-22T15:10:20.355Z,18.17
2022-09-22T15:12:49.643Z,18.23
2022-09-22T15:18:12.159Z,15.00
2022-09-22T15:20:59.021Z,13.75
2022-09-22T15:23:42.080Z,17.27
2022-09-22T15:26:30.067Z,14.07
2022-09-22T15:28:59.594Z,13.40
2022-09-22T15:34:00.401Z,15.70
2022-09-22T15:36:30.793Z,14.30
2022-09-22T15:39:01.709Z,15.05
2022-09-22T15:41:28.517Z,12.93
2022-09-22T15:43:55.527Z,13.50
2022-09-22T15:46:39.605Z,14.55
2022-09-22T15:49:21.157Z,15.90
2022-09-22T15:51:51.428Z,15.15
2022-09-22T15:54:23.706Z,13.38
2022-09-22T15:56:54.977Z,13.18
2022-09-22T15:59:28.375Z,13.43
2022-09-22T16:01:57.213Z,15.45
2022-09-22T16:04:24.612Z,11.82
2022-09-22T16:06:57.688Z,13.20
2022-09-22T16:09:24.545Z,12.85
2022-09-22T16:11:51.565Z,12.45
2022-09-22T16:14:18.942Z,13.00
2022-09-22T16:16:45.736Z,13.73
2022-09-22T16:19:12.621Z,13.90
2022-09-22T16:21:48.107Z,13.25
2022-09-22T16:24:15.334Z,13.30
2022-09-22T16:26:42.099Z,15.75
2022-09-22T16:29:09.445Z,13.43
2022-09-22T16:31:37.445Z,14.05
2022-09-22T16:34:05.935Z,13.48
2022-09-22T16:36:35.391Z,13.47
2022-09-22T16:39:03.656Z,13.95
2022-09-22T16:41:33.068Z,12.45
2022-09-22T16:46:28.757Z,13.38
2022-09-22T16:49:13.117Z,12.88
2022-09-22T16:51:41.679Z,14.05
2022-09-22T16:54:13.506Z,14.37
2022-09-22T16:56:43.320Z,12.13
2022-09-22T16:59:11.474Z,12.40
2022-09-22T17:01:38.685Z,12.38
2022-09-22T17:04:06.932Z,12.45
2022-09-22T17:06:37.054Z,11.32
2022-09-22T17:09:05.557Z,13.88
2022-09-22T17:11:36.494Z,17.03
2022-09-22T17:14:12.145Z,14.65
2022-09-22T17:16:43.203Z,14.52
2022-09-22T17:19:19.633Z,12.35
2022-09-22T17:21:48.346Z,12.68
2022-09-22T17:24:16.533Z,16.23
2022-09-22T17:26:49.080Z,17.90
2022-09-22T17:29:25.220Z,16.92
2022-09-22T17:31:56.889Z,16.20
2022-09-22T17:34:24.880Z,14.18
2022-09-22T17:36:52.718Z,14.07
2022-09-22T17:39:19.568Z,15.95
2022-09-22T17:41:49.336Z,13.57
2022-09-22T17:44:21.668Z,13.40
2022-09-22T17:47:08.874Z,13.30
2022-09-22T17:49:54.336Z,13.75
2022-09-22T17:52:29.854Z,15.77
2022-09-22T17:55:07.596Z,15.50
2022-09-22T17:57:39.904Z,16.35
2022-09-22T18:00:19.540Z,17.23
2022-09-22T18:05:16.354Z,15.05
2022-09-22T18:07:43.834Z,15.55
2022-09-22T18:10:13.691Z,14.38
2022-09-22T18:12:41.434Z,14.18
2022-09-22T18:15:12.934Z,14.73
2022-09-22T18:17:42.340Z,14.43
2022-09-22T18:20:22.222Z,16.55
2022-09-22T18:22:50.206Z,17.05
2022-09-22T18:28:05.773Z,14.07
2022-09-22T18:30:34.100Z,15.55
2022-09-22T18:33:00.982Z,15.68
2022-09-22T18:35:29.032Z,17.95
2022-09-22T18:37:56.026Z,17.63
2022-09-22T18:40:22.851Z,18.17
2022-09-22T18:42:50.309Z,17.00
2022-09-22T18:45:17.358Z,15.23
2022-09-22T18:47:44.269Z,15.48
2022-09-22T18:50:12.855Z,19.15
2022-09-22T18:52:43.772Z,15.52
2022-09-22T18:55:14.531Z,16.92
2022-09-22T18:57:41.570Z,19.33
2022-09-22T19:00:09.972Z,18.70
2022-09-22T19:02:36.923Z,19.10
2022-09-22T19:05:03.869Z,17.23
2022-09-22T19:07:43.242Z,16.40
2022-09-22T19:10:15.601Z,20.08
2022-09-22T19:12:43.011Z,16.17
2022-09-22T19:15:16.643Z,17.30
2022-09-22T19:17:46.082Z,16.63
2022-09-22T19:20:23.417Z,16.88
2022-09-22T19:22:51.078Z,16.13
2022-09-22T19:25:18.937Z,16.70
2022-09-22T19:27:46.321Z,16.52
2022-09-22T19:30:13.569Z,16.73
2022-09-22T19:32:43.187Z,17.40
2022-09-22T19:35:10.298Z,18.55
2022-09-22T19:37:37.461Z,16.45
2022-09-22T19:40:06.256Z,17.20
2022-09-22T19:42:37.982Z,16.50
2022-09-22T19:45:07.073Z,18.77
2022-09-22T19:47:34.157Z,16.10
2022-09-22T19:50:02.004Z,16.33
2022-09-22T19:52:28.941Z,18.42
2022-09-22T19:54:55.738Z,20.02
2022-09-22T19:57:22.621Z,17.55
2022-09-22T19:59:49.429Z,17.92
2022-09-22T20:02:16.638Z,17.35
2022-09-22T20:04:43.407Z,17.60
2022-09-22T20:07:11.139Z,17.70
2022-09-22T20:09:38.260Z,18.73
2022-09-22T20:12:06.095Z,18.45
2022-09-22T20:14:33.554Z,19.45
2022-09-22T20:17:02.805Z,19.08
2022-09-22T20:19:35.179Z,18.42
2022-09-22T20:22:31.829Z,19.65
2022-09-22T20:25:01.628Z,19.00
2022-09-22T20:29:57.763Z,18.90
2022-09-22T20:32:26.543Z,18.83
2022-09-22T20:34:55.436Z,20.55
2022-09-22T20:37:23.174Z,22.00
2022-09-22T20:39:50.364Z,20.88
2022-09-22T20:42:18.255Z,20.92
2022-09-22T20:44:45.527Z,22.67
2022-09-22T20:47:18.111Z,21.00
2022-09-22T20:49:50.830Z,22.45
2022-09-22T20:52:20.483Z,24.48
2022-09-22T20:54:48.531Z,21.92
2022-09-22T20:57:15.740Z,22.42
2022-09-22T20:59:46.176Z,23.35
2022-09-22T21:02:15.137Z,23.95
2022-09-22T21:04:42.549Z,24.52
2022-09-22T21:07:10.395Z,21.05
2022-09-22T21:09:55.615Z,22.05
2022-09-22T21:12:27.340Z,23.15
2022-09-22T21:14:57.781Z,22.05
2022-09-22T21:17:25.029Z,22.80
2022-09-22T21:19:51.997Z,22.63
2022-09-22T21:22:18.903Z,25.13
2022-09-22T21:24:47.290Z,22.90
2022-09-22T21:27:14.234Z,22.33
2022-09-22T21:29:41.986Z,23.25
2022-09-22T21:32:09.834Z,21.67
2022-09-22T21:34:36.875Z,23.90
2022-09-22T21:37:05.195Z,26.17
2022-09-22T21:39:32.136Z,23.95
2022-09-22T21:41:59.022Z,25.67
2022-09-22T21:44:26.064Z,23.85
2022-09-22T21:46:54.420Z,24.60
2022-09-22T21:49:21.275Z,23.15
2022-09-22T21:51:48.215Z,25.15
2022-09-22T21:54:18.404Z,24.38
2022-09-22T21:56:46.120Z,24.20
2022-09-22T21:59:13.570Z,24.63
2022-09-22T22:01:42.554Z,24.58
2022-09-22T22:04:15.964Z,26.25
2022-09-22T22:06:44.846Z,26.33
2022-09-22T22:09:19.128Z,24.33
2022-09-22T22:11:49.077Z,25.10
2022-09-22T22:14:19.300Z,26.48
2022-09-22T22:16:48.628Z,30.50
2022-09-22T22:19:20.406Z,28.80
2022-09-22T22:21:50.853Z,30.13
2022-09-22T22:24:20.408Z,27.70
2022-09-22T22:26:51.822Z,29.35
2022-09-22T22:29:19.943Z,28.10
2022-09-22T22:31:49.190Z,26.85
2022-09-22T22:34:18.798Z,26.02
2022-09-22T22:36:46.420Z,25.17
2022-09-22T22:39:13.519Z,26.33
2022-09-22T22:41:41.512Z,37.40
2022-09-22T22:44:08.931Z,36.88
2022-09-22T22:46:36.247Z,28.08
2022-09-22T22:49:12.476Z,30.70
2022-09-22T22:51:40.570Z,28.38
2022-09-22T22:54:07.550Z,29.58
2022-09-22T22:56:34.522Z,26.83
2022-09-22T22:59:01.645Z,31.05
2022-09-22T23:01:33.558Z,30.65
2022-09-22T23:04:02.639Z,27.67
2022-09-22T23:06:35.955Z,27.98
2022-09-22T23:09:05.518Z,27.85
2022-09-22T23:11:37.778Z,26.20
2022-09-22T23:14:08.384Z,26.77
2022-09-22T23:16:43.787Z,26.52
2022-09-22T23:19:13.828Z,29.38
2022-09-22T23:21:41.086Z,27.95
2022-09-22T23:24:08.740Z,27.40
2022-09-22T23:26:37.600Z,26.65
2022-09-22T23:29:06.289Z,26.55
2022-09-22T23:31:33.174Z,26.60
2022-09-22T23:34:00.106Z,27.25
2022-09-22T23:36:31.489Z,26.25
2022-09-22T23:39:04.617Z,27.30
2022-09-22T23:41:33.464Z,28.13
2022-09-22T23:44:00.490Z,26.85
2022-09-22T23:46:27.601Z,25.48
2022-09-22T23:48:55.797Z,25.02
2022-09-22T23:51:23.000Z,27.35
2022-09-22T23:53:49.889Z,27.80
2022-09-22T23:56:16.830Z,24.80
2022-09-22T23:58:43.750Z,26.67
